Time;durP1;ratioP1;P1;durP2;ratioP2;P2;SDS_P1;SDS_P2;PMS_P1;PMS_P2;Temp;Humidity;BMP_temperature;BMP_pressure;BME280_temperature;BME280_humidity;BME280_pressure;Samples;Min_cycle;Max_cycle;Signal;HPM_P1;HPM_P2
2021/12/29 00:01:47;;;;;;;;;;;6.30;99.90;;;;;;5087487;28;19915;-75
2021/12/29 00:04:13;;;;;;;;;;;6.30;99.90;;;;;;5072017;28;19977;-75
2021/12/29 00:06:38;;;;;;;;;;;6.30;99.90;;;;;;5068990;28;19919;-73
2021/12/29 00:09:04;;;;;;;;;;;6.30;99.90;;;;;;5087408;28;20007;-75
2021/12/29 00:11:30;;;;;;;;;;;6.30;99.90;;;;;;5087717;28;20006;-75
2021/12/29 00:13:55;;;;;;;;;;;6.30;99.90;;;;;;5090649;28;19908;-75
2021/12/29 00:16:21;;;;;;;;;;;6.30;99.90;;;;;;5073149;28;20439;-75
2021/12/29 00:18:46;;;;;;;;;;;6.30;99.90;;;;;;5090469;28;19908;-75
2021/12/29 00:21:14;;;;;;;;;;;6.30;99.90;;;;;;5091131;28;20171;-75
2021/12/29 00:23:39;;;;;;;;;;;6.20;99.90;;;;;;5069843;28;19923;-75
2021/12/29 00:26:05;;;;;;;;;;;6.20;99.90;;;;;;5087666;28;19912;-75
2021/12/29 00:28:30;;;;;;;;;;;6.20;99.90;;;;;;5087775;28;19912;-76
2021/12/29 00:30:56;;;;;;;;;;;6.30;99.90;;;;;;5088013;28;19908;-75
2021/12/29 00:33:22;;;;;;;;;;;6.20;99.90;;;;;;5087261;28;19908;-75
2021/12/29 00:35:48;;;;;;;;;;;6.20;99.90;;;;;;5087690;28;20360;-73
2021/12/29 00:38:13;;;;;;;;;;;6.20;99.90;;;;;;5085205;28;19955;-74
2021/12/29 00:40:39;;;;;;;;;;;6.20;99.90;;;;;;5081265;28;19912;-75
2021/12/29 00:43:08;;;;;;;;;;;6.20;99.90;;;;;;5088555;28;19963;-75
2021/12/29 00:45:36;;;;;;;;;;;6.20;99.90;;;;;;5089807;28;19931;-74
2021/12/29 00:48:03;;;;;;;;;;;6.20;99.90;;;;;;5090997;28;19954;-74
2021/12/29 00:50:28;;;;;;;;;;;6.20;99.90;;;;;;5091134;28;19919;-75
2021/12/29 00:52:54;;;;;;;;;;;6.20;99.90;;;;;;5090762;28;19908;-73
2021/12/29 00:55:19;;;;;;;;;;;6.20;99.90;;;;;;5090281;28;19919;-76
2021/12/29 00:57:45;;;;;;;;;;;6.20;99.90;;;;;;5072847;28;20339;-76
2021/12/29 01:00:13;;;;;;;;;;;6.20;99.90;;;;;;5072564;28;19908;-75
2021/12/29 01:02:38;;;;;;;;;;;6.30;99.90;;;;;;5072775;28;20438;-75
2021/12/29 01:05:04;;;;;;;;;;;6.20;99.90;;;;;;5090425;28;19908;-74
2021/12/29 01:07:30;;;;;;;;;;;6.20;99.90;;;;;;5086146;28;19908;-75
2021/12/29 01:09:56;;;;;;;;;;;6.20;99.90;;;;;;5090152;28;20007;-74
2021/12/29 01:12:22;;;;;;;;;;;6.30;99.90;;;;;;5090651;28;19923;-75
2021/12/29 01:14:54;;;;;;;;;;;6.20;99.90;;;;;;5091446;28;19922;-75
2021/12/29 01:17:22;;;;;;;;;;;6.30;99.90;;;;;;5094043;28;21346;-75
2021/12/29 01:19:49;;;;;;;;;;;6.30;99.90;;;;;;5094600;28;20403;-75
2021/12/29 01:22:15;;;;;;;;;;;6.20;99.90;;;;;;5094094;28;19914;-75
2021/12/29 01:24:42;;;;;;;;;;;6.30;99.90;;;;;;5093917;28;20007;-75
2021/12/29 01:27:08;;;;;;;;;;;6.40;99.90;;;;;;5076073;28;19908;-75
2021/12/29 01:29:34;;;;;;;;;;;6.40;99.90;;;;;;5094682;28;19912;-75
2021/12/29 01:32:00;;;;;;;;;;;6.30;99.90;;;;;;5095813;28;20311;-75
2021/12/29 01:34:26;;;;;;;;;;;6.30;99.90;;;;;;5096040;28;19995;-75
2021/12/29 01:36:52;;;;;;;;;;;6.30;99.90;;;;;;5095246;28;19947;-75
2021/12/29 01:39:18;;;;;;;;;;;6.30;99.90;;;;;;5093776;28;19958;-75
2021/12/29 01:41:44;;;;;;;;;;;6.40;99.90;;;;;;5094034;28;19909;-75
2021/12/29 01:44:10;;;;;;;;;;;6.40;99.90;;;;;;5093750;28;19912;-75
2021/12/29 01:46:37;;;;;;;;;;;6.40;99.90;;;;;;5093912;28;19908;-75
2021/12/29 01:49:04;;;;;;;;;;;6.30;99.90;;;;;;5093970;28;19980;-73
2021/12/29 01:51:30;;;;;;;;;;;6.30;99.90;;;;;;5093517;28;19922;-74
2021/12/29 01:54:16;;;;;;;;;;;6.30;99.90;;;;;;5093450;28;19943;-75
2021/12/29 01:56:45;;;;;;;;;;;6.40;99.90;;;;;;5093701;28;19908;-75
2021/12/29 01:59:14;;;;;;;;;;;6.30;99.90;;;;;;5093803;28;19908;-75
2021/12/29 02:01:40;;;;;;;;;;;6.30;99.90;;;;;;5093701;28;19930;-75
2021/12/29 02:04:06;;;;;;;;;;;6.40;99.90;;;;;;5074718;28;19974;-75
2021/12/29 02:06:32;;;;;;;;;;;6.30;99.90;;;;;;5093451;28;19938;-75
2021/12/29 02:08:58;;;;;;;;;;;6.30;99.90;;;;;;5090879;28;19908;-74
2021/12/29 02:11:29;;;;;;;;;;;6.30;99.90;;;;;;5093261;28;20409;-74
2021/12/29 02:13:56;;;;;;;;;;;6.30;99.90;;;;;;5092805;28;19909;-75
2021/12/29 02:16:22;;;;;;;;;;;6.30;99.90;;;;;;5093398;28;19912;-75
2021/12/29 02:18:52;;;;;;;;;;;6.30;99.90;;;;;;5093202;28;20287;-74
2021/12/29 02:21:20;;;;;;;;;;;6.30;99.90;;;;;;5093274;28;20141;-75
2021/12/29 02:24:03;;;;;;;;;;;6.30;99.90;;;;;;5074472;28;19918;-75
2021/12/29 02:26:30;;;;;;;;;;;6.30;99.90;;;;;;5092664;28;19940;-75
2021/12/29 02:28:56;;;;;;;;;;;6.30;99.90;;;;;;5086339;28;19959;-75
2021/12/29 02:31:22;;;;;;;;;;;6.30;99.90;;;;;;5093445;28;19908;-75
2021/12/29 02:33:48;;;;;;;;;;;6.30;99.90;;;;;;5092450;28;19908;-73
2021/12/29 02:36:16;;;;;;;;;;;6.30;99.90;;;;;;5093025;28;19914;-75
2021/12/29 02:38:46;;;;;;;;;;;6.30;99.90;;;;;;5087926;28;20201;-75
2021/12/29 02:41:12;;;;;;;;;;;6.30;99.90;;;;;;5092823;28;19908;-74
2021/12/29 02:43:39;;;;;;;;;;;6.30;99.90;;;;;;5092171;28;19919;-75
2021/12/29 02:46:11;;;;;;;;;;;6.30;99.90;;;;;;5093652;28;20007;-75
2021/12/29 02:48:40;;;;;;;;;;;6.30;99.90;;;;;;5092971;28;20277;-75
2021/12/29 02:51:08;;;;;;;;;;;6.30;99.90;;;;;;5092998;28;20060;-75
2021/12/29 02:53:34;;;;;;;;;;;6.40;99.90;;;;;;5092210;28;20016;-75
2021/12/29 02:55:59;;;;;;;;;;;6.40;99.90;;;;;;5093133;28;19947;-75
2021/12/29 02:58:25;;;;;;;;;;;6.40;99.90;;;;;;5092536;28;19952;-75
2021/12/29 03:00:51;;;;;;;;;;;6.40;99.90;;;;;;5085989;28;19908;-75
2021/12/29 03:03:24;;;;;;;;;;;6.40;99.90;;;;;;5091933;28;19912;-75
2021/12/29 03:05:50;;;;;;;;;;;6.40;99.90;;;;;;5092456;28;19908;-75
2021/12/29 03:08:17;;;;;;;;;;;6.40;99.90;;;;;;5090517;28;19955;-75
2021/12/29 03:10:42;;;;;;;;;;;6.40;99.90;;;;;;5091689;28;20389;-75
2021/12/29 03:13:08;;;;;;;;;;;6.40;99.90;;;;;;5092044;28;19999;-75
2021/12/29 03:15:34;;;;;;;;;;;6.40;99.90;;;;;;5092174;28;19959;-75
2021/12/29 03:18:00;;;;;;;;;;;6.40;99.90;;;;;;5092492;28;19954;-75
2021/12/29 03:20:26;;;;;;;;;;;6.50;99.90;;;;;;5092373;28;19908;-75
2021/12/29 03:22:52;;;;;;;;;;;6.50;99.90;;;;;;5092319;28;19969;-75
2021/12/29 03:25:18;;;;;;;;;;;6.50;99.90;;;;;;5091751;28;19955;-75
2021/12/29 03:27:43;;;;;;;;;;;6.50;99.90;;;;;;5092344;28;19958;-74
2021/12/29 03:30:09;;;;;;;;;;;6.60;99.90;;;;;;5092210;28;20368;-73
2021/12/29 03:32:48;;;;;;;;;;;6.60;99.90;;;;;;5092222;28;19975;-75
2021/12/29 03:35:14;;;;;;;;;;;6.50;99.90;;;;;;5090733;28;19908;-75
2021/12/29 03:37:39;;;;;;;;;;;6.50;99.90;;;;;;5090579;28;19991;-75
2021/12/29 03:40:05;;;;;;;;;;;6.50;99.90;;;;;;5092098;28;19958;-75
2021/12/29 03:42:31;;;;;;;;;;;6.50;99.90;;;;;;5092020;28;19939;-75
2021/12/29 03:44:56;;;;;;;;;;;6.50;99.90;;;;;;5091420;28;19944;-75
2021/12/29 03:47:22;;;;;;;;;;;6.60;99.90;;;;;;5091862;28;19916;-74
2021/12/29 03:49:47;;;;;;;;;;;6.60;99.90;;;;;;5091795;28;19915;-73
2021/12/29 03:52:13;;;;;;;;;;;6.60;99.90;;;;;;5091801;28;19915;-73
2021/12/29 03:54:38;;;;;;;;;;;6.60;99.90;;;;;;5091324;28;19927;-74
2021/12/29 03:57:04;;;;;;;;;;;6.60;99.90;;;;;;5091753;28;19916;-74
2021/12/29 03:59:29;;;;;;;;;;;6.60;99.90;;;;;;5091833;28;20437;-73
2021/12/29 04:01:55;;;;;;;;;;;6.60;99.90;;;;;;5091690;28;20293;-73
2021/12/29 04:04:21;;;;;;;;;;;6.50;99.90;;;;;;5088325;28;19912;-74
2021/12/29 04:06:47;;;;;;;;;;;6.40;99.90;;;;;;5090801;28;19961;-74
2021/12/29 04:09:12;;;;;;;;;;;6.30;99.90;;;;;;5091279;28;20006;-74
2021/12/29 04:11:38;;;;;;;;;;;6.30;99.90;;;;;;5091295;28;20011;-74
2021/12/29 04:14:04;;;;;;;;;;;6.10;99.90;;;;;;5090800;28;20322;-73
2021/12/29 04:16:29;;;;;;;;;;;6.20;99.90;;;;;;5091281;28;19957;-74
2021/12/29 04:19:14;;;;;;;;;;;6.20;99.90;;;;;;5091462;28;19912;-74
2021/12/29 04:21:41;;;;;;;;;;;6.30;99.90;;;;;;5073255;28;19912;-73
2021/12/29 04:24:07;;;;;;;;;;;6.30;99.90;;;;;;5089049;28;19923;-73
2021/12/29 04:26:36;;;;;;;;;;;6.40;99.90;;;;;;5090861;28;19909;-73
2021/12/29 04:29:01;;;;;;;;;;;6.40;99.90;;;;;;5091395;28;20432;-73
2021/12/29 04:31:27;;;;;;;;;;;6.40;99.90;;;;;;5072982;28;19998;-75
2021/12/29 04:33:52;;;;;;;;;;;6.40;99.90;;;;;;5090839;28;20015;-73
2021/12/29 04:36:24;;;;;;;;;;;6.50;99.90;;;;;;5073056;28;19912;-73
2021/12/29 04:38:50;;;;;;;;;;;6.40;99.90;;;;;;5091273;28;19916;-74
2021/12/29 04:41:15;;;;;;;;;;;6.50;99.90;;;;;;5091151;28;19955;-74
2021/12/29 04:43:41;;;;;;;;;;;6.50;99.90;;;;;;5090697;28;19912;-73
2021/12/29 04:46:06;;;;;;;;;;;6.50;99.90;;;;;;5091208;28;20000;-73
2021/12/29 04:48:38;;;;;;;;;;;6.50;99.90;;;;;;5091828;28;19908;-73
2021/12/29 04:51:06;;;;;;;;;;;6.60;99.90;;;;;;5095366;28;19990;-75
2021/12/29 04:53:32;;;;;;;;;;;6.60;99.90;;;;;;5091109;28;19908;-75
2021/12/29 04:55:58;;;;;;;;;;;6.50;99.90;;;;;;5094679;28;19908;-73
2021/12/29 04:58:23;;;;;;;;;;;6.50;99.90;;;;;;5095014;28;19915;-76
2021/12/29 05:00:50;;;;;;;;;;;6.50;99.90;;;;;;5095066;28;19933;-73
2021/12/29 05:03:15;;;;;;;;;;;6.50;99.90;;;;;;5094316;28;19912;-73
2021/12/29 05:05:54;;;;;;;;;;;6.70;99.90;;;;;;5095019;28;20448;-73
2021/12/29 05:08:25;;;;;;;;;;;6.60;99.90;;;;;;5076650;28;19912;-73
2021/12/29 05:11:11;;;;;;;;;;;6.60;99.90;;;;;;5094905;28;19919;-73
2021/12/29 05:13:37;;;;;;;;;;;6.70;99.90;;;;;;5094146;28;19909;-73
2021/12/29 05:16:03;;;;;;;;;;;6.80;99.90;;;;;;5076790;28;20288;-73
2021/12/29 05:18:31;;;;;;;;;;;6.70;99.90;;;;;;5094751;28;19915;-73
2021/12/29 05:20:58;;;;;;;;;;;6.70;99.90;;;;;;5094811;28;19947;-73
2021/12/29 05:23:24;;;;;;;;;;;6.70;99.90;;;;;;5093773;28;19919;-73
2021/12/29 05:25:49;;;;;;;;;;;6.70;99.90;;;;;;5094030;28;19908;-73
2021/12/29 05:28:17;;;;;;;;;;;6.60;99.90;;;;;;5094341;28;20001;-73
2021/12/29 05:30:43;;;;;;;;;;;6.60;99.90;;;;;;5094612;28;19908;-73
2021/12/29 05:33:09;;;;;;;;;;;6.60;99.90;;;;;;5094135;28;20266;-74
2021/12/29 05:35:34;;;;;;;;;;;6.50;99.90;;;;;;5094389;28;19915;-75
2021/12/29 05:38:00;;;;;;;;;;;6.50;99.90;;;;;;5094350;28;19908;-74
2021/12/29 05:40:27;;;;;;;;;;;6.40;99.90;;;;;;5076212;28;19960;-73
2021/12/29 05:42:53;;;;;;;;;;;6.40;99.90;;;;;;5093845;28;20396;-73
2021/12/29 05:45:18;;;;;;;;;;;6.50;99.90;;;;;;5093837;28;20054;-73
2021/12/29 05:47:44;;;;;;;;;;;6.40;99.90;;;;;;5094227;28;20378;-73
2021/12/29 05:50:12;;;;;;;;;;;6.40;99.90;;;;;;5094021;28;19915;-73
2021/12/29 05:52:37;;;;;;;;;;;6.30;99.90;;;;;;5090906;28;19999;-73
2021/12/29 05:55:03;;;;;;;;;;;6.30;99.90;;;;;;5093234;28;19995;-76
2021/12/29 05:57:29;;;;;;;;;;;6.40;99.90;;;;;;5089820;28;19912;-75
2021/12/29 05:59:54;;;;;;;;;;;6.40;99.90;;;;;;5092835;28;20380;-73
2021/12/29 06:02:20;;;;;;;;;;;6.30;99.90;;;;;;5093910;28;19943;-74
2021/12/29 06:04:45;;;;;;;;;;;6.40;99.90;;;;;;5093212;28;19934;-73
2021/12/29 06:07:12;;;;;;;;;;;6.40;99.90;;;;;;5075707;28;19914;-76
2021/12/29 06:09:38;;;;;;;;;;;6.40;99.90;;;;;;5093618;28;20265;-74
2021/12/29 06:12:03;;;;;;;;;;;6.50;99.90;;;;;;5093657;28;19912;-74
2021/12/29 06:14:29;;;;;;;;;;;6.50;99.90;;;;;;5092901;28;19923;-74
2021/12/29 06:16:55;;;;;;;;;;;6.50;99.90;;;;;;5093691;28;19909;-73
2021/12/29 06:19:20;;;;;;;;;;;6.50;99.90;;;;;;5093957;28;19908;-73
2021/12/29 06:21:45;;;;;;;;;;;6.50;99.90;;;;;;5094151;28;19908;-74
2021/12/29 06:24:11;;;;;;;;;;;6.40;99.90;;;;;;5092829;28;19919;-73
2021/12/29 06:26:37;;;;;;;;;;;6.40;99.90;;;;;;5092999;28;19912;-73
2021/12/29 06:29:03;;;;;;;;;;;6.40;99.90;;;;;;5092873;28;19908;-73
2021/12/29 06:31:28;;;;;;;;;;;6.40;99.90;;;;;;5093704;28;19919;-74
2021/12/29 06:33:54;;;;;;;;;;;6.40;99.90;;;;;;5092842;28;20304;-74
2021/12/29 06:36:19;;;;;;;;;;;6.40;99.90;;;;;;5093121;28;19916;-74
2021/12/29 06:38:45;;;;;;;;;;;6.50;99.90;;;;;;5093265;28;19944;-73
2021/12/29 06:41:10;;;;;;;;;;;6.50;99.90;;;;;;5092888;28;19916;-74
2021/12/29 06:43:36;;;;;;;;;;;6.50;99.90;;;;;;5092516;28;19918;-74
2021/12/29 06:46:01;;;;;;;;;;;6.50;99.90;;;;;;5092893;28;19995;-73
2021/12/29 06:48:27;;;;;;;;;;;6.50;99.90;;;;;;5092994;28;19930;-74
2021/12/29 06:50:52;;;;;;;;;;;6.50;99.90;;;;;;5092771;28;20361;-74
2021/12/29 06:53:18;;;;;;;;;;;6.50;99.90;;;;;;5092492;28;19913;-75
2021/12/29 06:55:43;;;;;;;;;;;6.50;99.90;;;;;;5084720;28;20025;-73
2021/12/29 06:58:09;;;;;;;;;;;6.50;99.90;;;;;;5092848;28;20364;-73
2021/12/29 07:00:36;;;;;;;;;;;6.50;99.90;;;;;;5092373;28;20007;-73
2021/12/29 07:03:01;;;;;;;;;;;6.50;99.90;;;;;;5074084;28;19908;-74
2021/12/29 07:05:27;;;;;;;;;;;6.50;99.90;;;;;;5092236;28;19931;-73
2021/12/29 07:07:54;;;;;;;;;;;6.40;99.90;;;;;;5092769;28;19934;-76
2021/12/29 07:10:20;;;;;;;;;;;6.40;99.90;;;;;;5092328;28;19919;-74
2021/12/29 07:12:46;;;;;;;;;;;6.40;99.90;;;;;;5092253;28;19908;-74
2021/12/29 07:15:11;;;;;;;;;;;6.40;99.90;;;;;;5091860;28;20384;-74
2021/12/29 07:17:37;;;;;;;;;;;6.40;99.90;;;;;;5092322;28;19987;-75
2021/12/29 07:20:03;;;;;;;;;;;6.40;99.90;;;;;;5074188;28;19908;-74
2021/12/29 07:22:28;;;;;;;;;;;6.40;99.90;;;;;;5092254;28;19969;-73
2021/12/29 07:24:54;;;;;;;;;;;6.40;99.90;;;;;;5091591;28;19913;-74
2021/12/29 07:27:19;;;;;;;;;;;6.40;99.90;;;;;;5090066;28;20011;-74
2021/12/29 07:29:45;;;;;;;;;;;6.40;99.90;;;;;;5091987;28;19908;-77
2021/12/29 07:32:10;;;;;;;;;;;6.50;99.90;;;;;;5092104;28;19915;-73
2021/12/29 07:34:36;;;;;;;;;;;6.40;99.90;;;;;;5091804;28;19962;-73
2021/12/29 07:37:01;;;;;;;;;;;6.40;99.90;;;;;;5091963;28;19908;-74
2021/12/29 07:39:27;;;;;;;;;;;6.50;99.90;;;;;;5092357;28;19965;-73
2021/12/29 07:41:53;;;;;;;;;;;6.50;99.90;;;;;;5073471;28;19915;-73
2021/12/29 07:44:18;;;;;;;;;;;6.50;99.90;;;;;;5091445;28;19955;-73
2021/12/29 07:46:46;;;;;;;;;;;6.50;99.90;;;;;;5073616;28;19915;-74
2021/12/29 07:49:12;;;;;;;;;;;6.50;99.90;;;;;;5091960;28;19908;-74
2021/12/29 07:51:40;;;;;;;;;;;6.60;99.90;;;;;;5091892;28;20368;-76
2021/12/29 07:54:06;;;;;;;;;;;6.60;99.90;;;;;;5091292;28;19915;-73
2021/12/29 07:56:31;;;;;;;;;;;6.50;99.90;;;;;;5090007;28;20494;-73
2021/12/29 07:58:57;;;;;;;;;;;6.50;99.90;;;;;;5091262;28;19915;-73
2021/12/29 08:01:22;;;;;;;;;;;6.60;99.90;;;;;;5091759;28;19908;-74
2021/12/29 08:03:48;;;;;;;;;;;6.60;99.90;;;;;;5091104;28;20261;-76
2021/12/29 08:06:15;;;;;;;;;;;6.60;99.90;;;;;;5091763;28;19912;-74
2021/12/29 08:08:41;;;;;;;;;;;6.60;99.90;;;;;;5091464;28;19954;-73
2021/12/29 08:11:06;;;;;;;;;;;6.70;99.90;;;;;;5091542;28;20319;-74
2021/12/29 08:13:32;;;;;;;;;;;6.80;99.90;;;;;;5072651;28;19951;-74
2021/12/29 08:15:57;;;;;;;;;;;6.90;99.90;;;;;;5091343;28;19969;-74
2021/12/29 08:18:23;;;;;;;;;;;6.90;99.90;;;;;;5084661;28;19908;-74
2021/12/29 08:20:48;;;;;;;;;;;6.90;99.90;;;;;;5091399;28;20373;-76
2021/12/29 08:23:14;;;;;;;;;;;6.90;99.90;;;;;;5090054;28;19999;-73
2021/12/29 08:25:39;;;;;;;;;;;6.90;99.90;;;;;;5090665;28;20384;-74
2021/12/29 08:28:05;;;;;;;;;;;6.90;99.90;;;;;;5089843;28;19908;-73
2021/12/29 08:30:31;;;;;;;;;;;6.90;99.90;;;;;;5089969;28;19908;-76
2021/12/29 08:32:56;;;;;;;;;;;7.00;99.90;;;;;;5089907;28;19908;-74
2021/12/29 08:35:23;;;;;;;;;;;7.10;99.90;;;;;;5091009;28;19915;-74
2021/12/29 08:37:48;;;;;;;;;;;7.10;99.90;;;;;;5072863;28;19908;-74
2021/12/29 08:40:14;;;;;;;;;;;7.20;99.90;;;;;;5091266;28;20019;-74
2021/12/29 08:42:40;;;;;;;;;;;7.30;99.90;;;;;;5091318;28;19909;-74
2021/12/29 08:45:07;;;;;;;;;;;7.50;99.90;;;;;;5090597;28;20349;-74
2021/12/29 08:47:32;;;;;;;;;;;7.40;99.90;;;;;;5091399;28;19908;-73
2021/12/29 08:49:57;;;;;;;;;;;7.40;99.90;;;;;;5091148;28;19960;-73
2021/12/29 08:52:23;;;;;;;;;;;7.30;99.90;;;;;;5090907;28;19909;-75
2021/12/29 08:54:49;;;;;;;;;;;7.30;99.90;;;;;;5090500;28;19956;-74
2021/12/29 08:57:14;;;;;;;;;;;7.30;99.90;;;;;;5086861;28;20441;-74
2021/12/29 08:59:40;;;;;;;;;;;7.30;99.90;;;;;;5072364;28;20364;-74
2021/12/29 09:02:05;;;;;;;;;;;7.30;99.90;;;;;;5090943;28;19908;-75
2021/12/29 09:04:31;;;;;;;;;;;7.40;99.90;;;;;;5072133;28;19950;-74
2021/12/29 09:06:56;;;;;;;;;;;7.40;99.90;;;;;;5091222;28;19909;-73
2021/12/29 09:09:22;;;;;;;;;;;7.40;99.90;;;;;;5090859;28;19909;-74
2021/12/29 09:11:48;;;;;;;;;;;7.40;99.90;;;;;;5090814;28;19908;-76
2021/12/29 09:14:13;;;;;;;;;;;7.30;99.90;;;;;;5090081;28;19920;-73
2021/12/29 09:16:39;;;;;;;;;;;7.30;99.90;;;;;;5090894;28;20328;-74
2021/12/29 09:19:05;;;;;;;;;;;7.40;99.90;;;;;;5090672;28;19915;-73
2021/12/29 09:21:32;;;;;;;;;;;7.40;99.90;;;;;;5090722;28;20045;-74
2021/12/29 09:23:57;;;;;;;;;;;7.50;99.90;;;;;;5090090;28;19912;-74
2021/12/29 09:26:23;;;;;;;;;;;7.60;99.90;;;;;;5089865;28;19908;-74
2021/12/29 09:28:49;;;;;;;;;;;7.60;99.90;;;;;;5090469;28;19970;-74
2021/12/29 09:31:15;;;;;;;;;;;8.20;99.90;;;;;;5090661;28;19969;-74
2021/12/29 09:33:41;;;;;;;;;;;9.00;99.90;;;;;;5083715;28;19948;-74
2021/12/29 09:36:07;;;;;;;;;;;8.70;99.90;;;;;;5092042;28;20308;-74
2021/12/29 09:38:35;;;;;;;;;;;8.60;99.90;;;;;;5094397;28;19915;-75
2021/12/29 09:41:01;;;;;;;;;;;8.50;99.90;;;;;;5094047;28;19908;-76
2021/12/29 09:43:26;;;;;;;;;;;8.20;99.90;;;;;;5093632;28;19957;-74
2021/12/29 09:45:52;;;;;;;;;;;8.10;99.90;;;;;;5094120;28;20318;-74
2021/12/29 09:48:18;;;;;;;;;;;8.10;99.90;;;;;;5094241;28;20383;-73
2021/12/29 09:50:44;;;;;;;;;;;8.20;99.90;;;;;;5093612;28;19910;-74
2021/12/29 09:53:10;;;;;;;;;;;8.10;99.90;;;;;;5093616;28;19912;-74
2021/12/29 09:55:37;;;;;;;;;;;8.20;99.90;;;;;;5092068;28;19915;-75
2021/12/29 09:58:03;;;;;;;;;;;8.30;99.90;;;;;;5093778;28;19908;-73
2021/12/29 10:00:31;;;;;;;;;;;8.30;99.90;;;;;;5093521;28;19919;-75
2021/12/29 10:02:58;;;;;;;;;;;8.40;99.90;;;;;;5093640;28;20147;-74
2021/12/29 10:05:26;;;;;;;;;;;8.40;99.90;;;;;;5093170;28;19912;-74
2021/12/29 10:07:56;;;;;;;;;;;8.50;99.90;;;;;;5093779;28;20258;-73
2021/12/29 10:10:23;;;;;;;;;;;8.50;99.90;;;;;;5093696;28;19961;-74
2021/12/29 10:12:49;;;;;;;;;;;8.40;99.90;;;;;;5075493;28;19919;-73
2021/12/29 10:15:14;;;;;;;;;;;8.50;99.90;;;;;;5074775;28;19916;-73
2021/12/29 10:17:40;;;;;;;;;;;8.50;99.90;;;;;;5093375;28;19908;-74
2021/12/29 10:20:13;;;;;;;;;;;8.50;99.90;;;;;;5075171;28;20284;-74
2021/12/29 10:22:39;;;;;;;;;;;8.60;99.90;;;;;;5093457;28;19912;-75
2021/12/29 10:25:10;;;;;;;;;;;8.70;99.90;;;;;;5092783;28;20436;-73
2021/12/29 10:27:36;;;;;;;;;;;8.70;99.90;;;;;;5088952;28;20007;-77
2021/12/29 10:30:25;;;;;;;;;;;8.60;99.90;;;;;;5093035;28;20449;-76
2021/12/29 10:32:51;;;;;;;;;;;8.60;99.90;;;;;;5082341;28;19908;-74
2021/12/29 10:35:24;;;;;;;;;;;8.60;99.90;;;;;;5092848;28;19908;-73
2021/12/29 10:37:51;;;;;;;;;;;8.60;99.90;;;;;;5092900;28;19915;-74
2021/12/29 10:40:24;;;;;;;;;;;8.70;99.90;;;;;;5093421;28;20400;-74
2021/12/29 10:42:57;;;;;;;;;;;8.80;99.90;;;;;;5092739;28;20003;-74
2021/12/29 10:45:33;;;;;;;;;;;8.70;99.90;;;;;;5092818;28;19912;-73
2021/12/29 10:47:58;;;;;;;;;;;8.60;99.90;;;;;;5092237;28;19914;-73
2021/12/29 10:50:26;;;;;;;;;;;8.60;99.90;;;;;;5092799;28;19908;-74
2021/12/29 10:52:55;;;;;;;;;;;8.60;99.90;;;;;;5092624;28;19908;-74
2021/12/29 10:55:34;;;;;;;;;;;8.50;99.90;;;;;;5092455;28;20265;-73
2021/12/29 10:58:00;;;;;;;;;;;8.50;99.90;;;;;;5073866;28;19999;-74
2021/12/29 11:00:25;;;;;;;;;;;8.40;99.90;;;;;;5074515;28;20019;-74
2021/12/29 11:02:52;;;;;;;;;;;8.40;99.90;;;;;;5092268;28;19908;-73
2021/12/29 11:05:18;;;;;;;;;;;8.40;99.90;;;;;;5091936;28;19915;-73
2021/12/29 11:07:43;;;;;;;;;;;8.40;99.90;;;;;;5092421;28;19915;-74
2021/12/29 11:10:13;;;;;;;;;;;8.40;99.90;;;;;;5092673;28;20365;-76
2021/12/29 11:12:48;;;;;;;;;;;8.50;99.90;;;;;;5092425;28;20096;-75
2021/12/29 11:15:18;;;;;;;;;;;8.50;99.90;;;;;;5091962;28;19923;-74
2021/12/29 11:17:44;;;;;;;;;;;8.50;99.90;;;;;;5092473;28;19931;-74
2021/12/29 11:20:09;;;;;;;;;;;8.40;99.90;;;;;;5092315;28;20352;-73
2021/12/29 11:22:38;;;;;;;;;;;8.40;99.90;;;;;;5092143;28;19915;-76
2021/12/29 11:25:04;;;;;;;;;;;8.40;99.90;;;;;;5091870;28;20045;-74
2021/12/29 11:27:31;;;;;;;;;;;8.40;99.90;;;;;;5090192;28;19966;-72
2021/12/29 11:29:58;;;;;;;;;;;8.30;99.90;;;;;;5091992;28;19995;-72
2021/12/29 11:32:31;;;;;;;;;;;8.30;99.90;;;;;;5092093;28;19912;-74
2021/12/29 11:35:17;;;;;;;;;;;8.40;99.90;;;;;;5091661;28;19919;-72
2021/12/29 11:37:45;;;;;;;;;;;8.50;99.90;;;;;;5091209;28;19916;-72
2021/12/29 11:40:11;;;;;;;;;;;8.60;99.90;;;;;;5092082;28;19908;-72
2021/12/29 11:42:37;;;;;;;;;;;8.60;99.90;;;;;;5091987;28;20437;-72
2021/12/29 11:45:04;;;;;;;;;;;8.70;99.90;;;;;;5091471;28;19995;-73
2021/12/29 11:47:29;;;;;;;;;;;8.70;99.90;;;;;;5091823;28;19912;-73
2021/12/29 11:49:55;;;;;;;;;;;8.80;99.90;;;;;;5091748;28;20453;-72
2021/12/29 11:52:39;;;;;;;;;;;8.90;99.90;;;;;;5091983;28;19913;-73
2021/12/29 11:55:05;;;;;;;;;;;9.00;99.90;;;;;;5091145;28;19908;-72
2021/12/29 11:57:31;;;;;;;;;;;8.90;99.90;;;;;;5086967;28;20322;-72
2021/12/29 12:00:12;;;;;;;;;;;8.70;99.90;;;;;;5090513;28;19919;-72
2021/12/29 12:02:38;;;;;;;;;;;8.70;99.90;;;;;;5073655;28;20334;-74
2021/12/29 12:05:06;;;;;;;;;;;8.70;99.90;;;;;;5052973;28;19912;-75
2021/12/29 12:07:31;;;;;;;;;;;8.70;99.90;;;;;;5084838;28;19986;-72
2021/12/29 12:10:01;;;;;;;;;;;8.60;99.90;;;;;;5091394;28;19947;-72
2021/12/29 12:12:37;;;;;;;;;;;8.60;99.90;;;;;;5091208;28;19952;-74
2021/12/29 12:15:04;;;;;;;;;;;8.50;99.90;;;;;;5085183;28;19970;-75
2021/12/29 12:17:29;;;;;;;;;;;8.40;99.90;;;;;;5091298;28;19934;-75
2021/12/29 12:19:59;;;;;;;;;;;8.30;99.90;;;;;;5091125;28;20432;-75
2021/12/29 12:22:26;;;;;;;;;;;8.40;99.90;;;;;;5091189;28;19909;-75
2021/12/29 12:24:52;;;;;;;;;;;8.40;99.90;;;;;;5090365;28;20322;-74
2021/12/29 12:27:29;;;;;;;;;;;8.60;99.90;;;;;;5071426;28;19908;-75
2021/12/29 12:30:03;;;;;;;;;;;8.70;99.90;;;;;;5090890;28;19919;-75
2021/12/29 12:32:39;;;;;;;;;;;8.90;99.90;;;;;;5091066;28;19912;-75
2021/12/29 12:35:05;;;;;;;;;;;8.90;99.90;;;;;;5090441;28;20045;-75
2021/12/29 12:37:37;;;;;;;;;;;8.70;99.90;;;;;;5091336;28;20038;-75
2021/12/29 12:40:06;;;;;;;;;;;8.60;99.90;;;;;;5090872;28;20269;-75
2021/12/29 12:42:33;;;;;;;;;;;8.50;99.90;;;;;;5091012;28;19919;-77
2021/12/29 12:44:59;;;;;;;;;;;8.50;99.90;;;;;;5072220;28;19916;-74
2021/12/29 12:47:29;;;;;;;;;;;8.50;99.90;;;;;;5090905;28;19916;-75
2021/12/29 12:49:55;;;;;;;;;;;8.60;99.90;;;;;;5090625;28;19914;-76
2021/12/29 12:52:23;;;;;;;;;;;8.70;99.90;;;;;;5090875;28;19999;-74
2021/12/29 12:54:57;;;;;;;;;;;8.70;99.90;;;;;;5090419;28;20419;-74
2021/12/29 12:57:27;;;;;;;;;;;8.70;99.90;;;;;;5089102;28;19940;-75
2021/12/29 12:59:54;;;;;;;;;;;8.60;99.90;;;;;;5090516;28;20008;-74
2021/12/29 13:02:24;;;;;;;;;;;8.60;99.90;;;;;;5083992;28;20341;-75
2021/12/29 13:05:10;;;;;;;;;;;8.50;99.90;;;;;;5069195;28;19927;-76
2021/12/29 13:07:36;;;;;;;;;;;8.50;99.90;;;;;;5086903;28;20066;-75
2021/12/29 13:10:02;;;;;;;;;;;8.60;99.90;;;;;;5092539;28;20440;-76
2021/12/29 13:12:29;;;;;;;;;;;8.60;99.90;;;;;;5094570;28;20262;-75
2021/12/29 13:15:14;;;;;;;;;;;8.60;99.90;;;;;;5094000;28;19923;-75
2021/12/29 13:17:43;;;;;;;;;;;8.60;99.90;;;;;;5094684;28;20384;-75
2021/12/29 13:20:10;;;;;;;;;;;8.60;99.90;;;;;;5094470;28;19912;-75
2021/12/29 13:22:36;;;;;;;;;;;8.60;99.90;;;;;;5094464;28;19935;-74
2021/12/29 13:25:24;;;;;;;;;;;8.60;99.90;;;;;;5094004;28;19912;-75
2021/12/29 13:28:00;;;;;;;;;;;8.60;99.90;;;;;;5088376;28;19954;-76
2021/12/29 13:30:27;;;;;;;;;;;8.50;99.90;;;;;;5094255;28;19908;-76
2021/12/29 13:32:53;;;;;;;;;;;8.60;99.90;;;;;;5094304;28;19934;-76
2021/12/29 13:35:46;;;;;;;;;;;8.60;99.90;;;;;;5094977;28;20390;-76
2021/12/29 13:38:16;;;;;;;;;;;8.60;99.90;;;;;;5091556;28;20419;-76
2021/12/29 13:40:44;;;;;;;;;;;8.60;99.90;;;;;;5094225;28;19912;-77
2021/12/29 13:43:11;;;;;;;;;;;8.60;99.90;;;;;;5093581;28;19912;-75
2021/12/29 13:45:36;;;;;;;;;;;8.50;99.90;;;;;;5075999;28;19931;-77
2021/12/29 13:48:03;;;;;;;;;;;8.40;99.90;;;;;;5094090;28;20376;-77
2021/12/29 13:50:29;;;;;;;;;;;8.40;99.90;;;;;;5093721;28;20003;-76
2021/12/29 13:53:02;;;;;;;;;;;8.30;99.90;;;;;;5093489;28;20418;-75
2021/12/29 13:55:29;;;;;;;;;;;8.20;99.90;;;;;;5093370;28;19961;-75
2021/12/29 13:57:55;;;;;;;;;;;8.10;99.90;;;;;;5091991;28;19960;-76
2021/12/29 14:00:21;;;;;;;;;;;8.00;99.90;;;;;;5093517;28;20417;-75
2021/12/29 14:02:46;;;;;;;;;;;7.90;99.90;;;;;;5093341;28;19995;-75
2021/12/29 14:05:13;;;;;;;;;;;7.90;99.90;;;;;;5093266;28;19912;-75
2021/12/29 14:07:39;;;;;;;;;;;7.90;99.90;;;;;;5093604;28;19912;-75
2021/12/29 14:10:05;;;;;;;;;;;7.90;99.90;;;;;;5093980;28;19908;-76
2021/12/29 14:12:33;;;;;;;;;;;7.90;99.90;;;;;;5093488;28;19914;-76
2021/12/29 14:15:00;;;;;;;;;;;7.90;99.90;;;;;;5091049;28;20015;-77
2021/12/29 14:17:26;;;;;;;;;;;7.90;99.90;;;;;;5073920;28;19912;-76
2021/12/29 14:19:52;;;;;;;;;;;7.80;99.90;;;;;;5093674;28;19962;-74
2021/12/29 14:22:25;;;;;;;;;;;7.80;99.90;;;;;;5092750;28;20002;-76
2021/12/29 14:24:51;;;;;;;;;;;7.80;99.90;;;;;;5092913;28;19966;-77
2021/12/29 14:27:25;;;;;;;;;;;7.70;99.90;;;;;;5093478;28;20570;-78
2021/12/29 14:29:50;;;;;;;;;;;7.70;99.90;;;;;;5092870;28;19908;-76
2021/12/29 14:32:18;;;;;;;;;;;7.70;99.90;;;;;;5093199;28;19915;-76